sensor_id;sensor_type;location;lat;lon;timestamp;P1;durP1;ratioP1;P2;durP2;ratioP2
28266;SDS011;15525;45.568;5.448;2023-11-21T00:02:24;37.95;;;21.48;;
28266;SDS011;15525;45.568;5.448;2023-11-21T00:04:50;34.70;;;20.50;;
28266;SDS011;15525;45.568;5.448;2023-11-21T00:07:16;28.52;;;18.23;;
28266;SDS011;15525;45.568;5.448;2023-11-21T00:09:42;32.92;;;20.08;;
28266;SDS011;15525;45.568;5.448;2023-11-21T00:12:08;35.33;;;20.50;;
28266;SDS011;15525;45.568;5.448;2023-11-21T00:14:36;35.25;;;18.65;;
28266;SDS011;15525;45.568;5.448;2023-11-21T00:17:03;32.50;;;18.38;;
28266;SDS011;15525;45.568;5.448;2023-11-21T00:19:29;32.95;;;18.95;;
28266;SDS011;15525;45.568;5.448;2023-11-21T00:21:54;33.22;;;18.45;;
28266;SDS011;15525;45.568;5.448;2023-11-21T00:24:19;34.88;;;18.10;;
28266;SDS011;15525;45.568;5.448;2023-11-21T00:26:45;34.10;;;18.15;;
28266;SDS011;15525;45.568;5.448;2023-11-21T00:29:13;33.08;;;18.52;;
28266;SDS011;15525;45.568;5.448;2023-11-21T00:31:39;30.40;;;17.40;;
28266;SDS011;15525;45.568;5.448;2023-11-21T00:34:04;28.95;;;17.27;;
28266;SDS011;15525;45.568;5.448;2023-11-21T00:36:30;29.50;;;16.92;;
28266;SDS011;15525;45.568;5.448;2023-11-21T00:38:58;30.50;;;17.83;;
28266;SDS011;15525;45.568;5.448;2023-11-21T00:41:24;27.70;;;16.50;;
28266;SDS011;15525;45.568;5.448;2023-11-21T00:43:52;31.75;;;17.13;;
28266;SDS011;15525;45.568;5.448;2023-11-21T00:46:18;34.55;;;17.42;;
28266;SDS011;15525;45.568;5.448;2023-11-21T00:48:43;28.83;;;17.10;;
28266;SDS011;15525;45.568;5.448;2023-11-21T00:51:09;27.08;;;16.45;;
28266;SDS011;15525;45.568;5.448;2023-11-21T00:53:34;31.42;;;17.20;;
28266;SDS011;15525;45.568;5.448;2023-11-21T00:55:59;29.05;;;16.30;;
28266;SDS011;15525;45.568;5.448;2023-11-21T00:58:25;32.70;;;17.80;;
28266;SDS011;15525;45.568;5.448;2023-11-21T01:00:50;35.10;;;18.75;;
28266;SDS011;15525;45.568;5.448;2023-11-21T01:03:16;30.65;;;17.48;;
28266;SDS011;15525;45.568;5.448;2023-11-21T01:05:41;28.42;;;16.17;;
28266;SDS011;15525;45.568;5.448;2023-11-21T01:08:07;33.08;;;17.73;;
28266;SDS011;15525;45.568;5.448;2023-11-21T01:10:32;33.97;;;18.23;;
28266;SDS011;15525;45.568;5.448;2023-11-21T01:12:59;34.92;;;18.90;;
28266;SDS011;15525;45.568;5.448;2023-11-21T01:15:25;30.80;;;17.02;;
28266;SDS011;15525;45.568;5.448;2023-11-21T01:17:51;32.65;;;17.00;;
28266;SDS011;15525;45.568;5.448;2023-11-21T01:20:17;29.33;;;15.95;;
28266;SDS011;15525;45.568;5.448;2023-11-21T01:22:42;29.30;;;15.73;;
28266;SDS011;15525;45.568;5.448;2023-11-21T01:25:08;26.55;;;15.98;;
28266;SDS011;15525;45.568;5.448;2023-11-21T01:27:34;30.88;;;16.08;;
28266;SDS011;15525;45.568;5.448;2023-11-21T01:30:00;30.85;;;15.75;;
28266;SDS011;15525;45.568;5.448;2023-11-21T01:32:26;26.77;;;15.95;;
28266;SDS011;15525;45.568;5.448;2023-11-21T01:34:53;27.75;;;16.15;;
28266;SDS011;15525;45.568;5.448;2023-11-21T01:37:20;29.40;;;16.08;;
28266;SDS011;15525;45.568;5.448;2023-11-21T01:39:46;31.20;;;16.15;;
28266;SDS011;15525;45.568;5.448;2023-11-21T01:42:12;26.08;;;14.90;;
28266;SDS011;15525;45.568;5.448;2023-11-21T01:44:38;31.08;;;15.73;;
28266;SDS011;15525;45.568;5.448;2023-11-21T01:47:04;25.70;;;15.20;;
28266;SDS011;15525;45.568;5.448;2023-11-21T01:49:34;27.83;;;16.23;;
28266;SDS011;15525;45.568;5.448;2023-11-21T01:51:59;29.42;;;16.17;;
28266;SDS011;15525;45.568;5.448;2023-11-21T01:54:25;27.48;;;15.43;;
28266;SDS011;15525;45.568;5.448;2023-11-21T01:56:51;30.90;;;17.70;;
28266;SDS011;15525;45.568;5.448;2023-11-21T01:59:20;30.90;;;18.38;;
28266;SDS011;15525;45.568;5.448;2023-11-21T02:01:49;40.03;;;19.90;;
28266;SDS011;15525;45.568;5.448;2023-11-21T02:04:17;30.85;;;18.17;;
28266;SDS011;15525;45.568;5.448;2023-11-21T02:06:43;31.83;;;18.63;;
28266;SDS011;15525;45.568;5.448;2023-11-21T02:09:09;39.05;;;20.23;;
28266;SDS011;15525;45.568;5.448;2023-11-21T02:11:34;37.13;;;18.10;;
28266;SDS011;15525;45.568;5.448;2023-11-21T02:14:00;33.22;;;18.23;;
28266;SDS011;15525;45.568;5.448;2023-11-21T02:16:26;43.17;;;18.50;;
28266;SDS011;15525;45.568;5.448;2023-11-21T02:18:52;48.88;;;20.23;;
28266;SDS011;15525;45.568;5.448;2023-11-21T02:21:18;34.25;;;17.65;;
28266;SDS011;15525;45.568;5.448;2023-11-21T02:23:44;32.83;;;18.08;;
28266;SDS011;15525;45.568;5.448;2023-11-21T02:26:11;34.75;;;17.58;;
28266;SDS011;15525;45.568;5.448;2023-11-21T02:28:37;31.77;;;17.27;;
28266;SDS011;15525;45.568;5.448;2023-11-21T02:31:04;33.67;;;17.55;;
28266;SDS011;15525;45.568;5.448;2023-11-21T02:33:30;50.65;;;19.48;;
28266;SDS011;15525;45.568;5.448;2023-11-21T02:35:59;39.58;;;19.40;;
28266;SDS011;15525;45.568;5.448;2023-11-21T02:38:27;37.65;;;19.00;;
28266;SDS011;15525;45.568;5.448;2023-11-21T02:40:52;45.95;;;19.05;;
28266;SDS011;15525;45.568;5.448;2023-11-21T02:43:18;43.60;;;18.63;;
28266;SDS011;15525;45.568;5.448;2023-11-21T02:45:43;39.80;;;19.08;;
28266;SDS011;15525;45.568;5.448;2023-11-21T02:48:09;35.90;;;18.83;;
28266;SDS011;15525;45.568;5.448;2023-11-21T02:50:34;36.58;;;18.63;;
28266;SDS011;15525;45.568;5.448;2023-11-21T02:53:00;33.92;;;18.45;;
28266;SDS011;15525;45.568;5.448;2023-11-21T02:55:26;36.28;;;18.25;;
28266;SDS011;15525;45.568;5.448;2023-11-21T02:57:52;74.82;;;18.88;;
28266;SDS011;15525;45.568;5.448;2023-11-21T03:00:18;47.03;;;18.95;;
28266;SDS011;15525;45.568;5.448;2023-11-21T03:02:44;31.55;;;16.90;;
28266;SDS011;15525;45.568;5.448;2023-11-21T03:05:10;31.60;;;17.63;;
28266;SDS011;15525;45.568;5.448;2023-11-21T03:07:38;33.00;;;17.30;;
28266;SDS011;15525;45.568;5.448;2023-11-21T03:10:05;50.35;;;17.33;;
28266;SDS011;15525;45.568;5.448;2023-11-21T03:12:34;30.42;;;17.60;;
28266;SDS011;15525;45.568;5.448;2023-11-21T03:15:00;31.13;;;18.23;;
28266;SDS011;15525;45.568;5.448;2023-11-21T03:17:26;29.52;;;17.52;;
28266;SDS011;15525;45.568;5.448;2023-11-21T03:19:52;32.25;;;17.73;;
28266;SDS011;15525;45.568;5.448;2023-11-21T03:22:18;29.48;;;16.85;;
28266;SDS011;15525;45.568;5.448;2023-11-21T03:24:44;27.90;;;16.63;;
28266;SDS011;15525;45.568;5.448;2023-11-21T03:27:09;30.67;;;17.60;;
28266;SDS011;15525;45.568;5.448;2023-11-21T03:29:34;31.75;;;18.00;;
28266;SDS011;15525;45.568;5.448;2023-11-21T03:32:00;29.58;;;17.15;;
28266;SDS011;15525;45.568;5.448;2023-11-21T03:34:26;30.77;;;17.80;;
28266;SDS011;15525;45.568;5.448;2023-11-21T03:36:52;32.95;;;17.75;;
28266;SDS011;15525;45.568;5.448;2023-11-21T03:39:21;26.65;;;16.10;;
28266;SDS011;15525;45.568;5.448;2023-11-21T03:41:47;26.95;;;16.40;;
28266;SDS011;15525;45.568;5.448;2023-11-21T03:44:13;29.20;;;17.08;;
28266;SDS011;15525;45.568;5.448;2023-11-21T03:46:39;30.02;;;17.17;;
28266;SDS011;15525;45.568;5.448;2023-11-21T03:49:04;30.92;;;17.23;;
28266;SDS011;15525;45.568;5.448;2023-11-21T03:51:30;33.30;;;17.85;;
28266;SDS011;15525;45.568;5.448;2023-11-21T03:53:55;34.17;;;18.58;;
28266;SDS011;15525;45.568;5.448;2023-11-21T03:56:21;34.50;;;17.55;;
28266;SDS011;15525;45.568;5.448;2023-11-21T03:58:49;31.05;;;17.55;;
28266;SDS011;15525;45.568;5.448;2023-11-21T04:01:21;34.13;;;17.90;;
28266;SDS011;15525;45.568;5.448;2023-11-21T04:03:47;32.15;;;17.58;;
28266;SDS011;15525;45.568;5.448;2023-11-21T04:06:16;38.53;;;18.38;;
28266;SDS011;15525;45.568;5.448;2023-11-21T04:08:45;34.40;;;17.55;;
28266;SDS011;15525;45.568;5.448;2023-11-21T04:11:11;35.70;;;17.75;;
28266;SDS011;15525;45.568;5.448;2023-11-21T04:13:37;32.22;;;17.77;;
28266;SDS011;15525;45.568;5.448;2023-11-21T04:16:04;28.52;;;17.50;;
28266;SDS011;15525;45.568;5.448;2023-11-21T04:18:31;31.48;;;17.20;;
28266;SDS011;15525;45.568;5.448;2023-11-21T04:20:56;34.85;;;18.83;;
28266;SDS011;15525;45.568;5.448;2023-11-21T04:23:22;35.15;;;18.10;;
28266;SDS011;15525;45.568;5.448;2023-11-21T04:25:47;31.58;;;18.45;;
28266;SDS011;15525;45.568;5.448;2023-11-21T04:28:12;31.90;;;18.88;;
28266;SDS011;15525;45.568;5.448;2023-11-21T04:30:38;31.48;;;19.40;;
28266;SDS011;15525;45.568;5.448;2023-11-21T04:33:04;36.17;;;19.35;;
28266;SDS011;15525;45.568;5.448;2023-11-21T04:35:30;33.65;;;17.88;;
28266;SDS011;15525;45.568;5.448;2023-11-21T04:37:55;33.30;;;17.88;;
28266;SDS011;15525;45.568;5.448;2023-11-21T04:40:22;31.35;;;17.23;;
28266;SDS011;15525;45.568;5.448;2023-11-21T04:42:47;29.75;;;17.40;;
28266;SDS011;15525;45.568;5.448;2023-11-21T04:45:13;32.13;;;18.02;;
28266;SDS011;15525;45.568;5.448;2023-11-21T04:47:38;28.50;;;16.50;;
28266;SDS011;15525;45.568;5.448;2023-11-21T04:50:04;27.67;;;15.95;;
28266;SDS011;15525;45.568;5.448;2023-11-21T04:52:30;29.17;;;15.43;;
28266;SDS011;15525;45.568;5.448;2023-11-21T04:54:56;29.75;;;15.50;;
28266;SDS011;15525;45.568;5.448;2023-11-21T04:57:23;27.45;;;15.23;;
28266;SDS011;15525;45.568;5.448;2023-11-21T04:59:49;26.92;;;15.55;;
28266;SDS011;15525;45.568;5.448;2023-11-21T05:02:15;28.08;;;15.27;;
28266;SDS011;15525;45.568;5.448;2023-11-21T05:04:40;28.90;;;15.32;;
28266;SDS011;15525;45.568;5.448;2023-11-21T05:07:07;27.20;;;15.15;;
28266;SDS011;15525;45.568;5.448;2023-11-21T05:09:33;30.15;;;15.10;;
28266;SDS011;15525;45.568;5.448;2023-11-21T05:11:59;30.00;;;14.68;;
28266;SDS011;15525;45.568;5.448;2023-11-21T05:14:25;37.00;;;17.38;;
28266;SDS011;15525;45.568;5.448;2023-11-21T05:16:50;30.63;;;15.52;;
28266;SDS011;15525;45.568;5.448;2023-11-21T05:19:16;32.88;;;15.85;;
28266;SDS011;15525;45.568;5.448;2023-11-21T05:21:42;28.83;;;14.57;;
28266;SDS011;15525;45.568;5.448;2023-11-21T05:24:07;27.33;;;16.10;;
28266;SDS011;15525;45.568;5.448;2023-11-21T05:26:33;35.72;;;17.42;;
28266;SDS011;15525;45.568;5.448;2023-11-21T05:28:58;30.98;;;16.17;;
28266;SDS011;15525;45.568;5.448;2023-11-21T05:31:23;28.65;;;15.73;;
28266;SDS011;15525;45.568;5.448;2023-11-21T05:33:49;30.58;;;15.90;;
28266;SDS011;15525;45.568;5.448;2023-11-21T05:36:14;28.35;;;15.25;;
28266;SDS011;15525;45.568;5.448;2023-11-21T05:38:40;25.67;;;14.13;;
28266;SDS011;15525;45.568;5.448;2023-11-21T05:41:06;30.85;;;14.38;;
28266;SDS011;15525;45.568;5.448;2023-11-21T05:43:33;25.90;;;13.65;;
28266;SDS011;15525;45.568;5.448;2023-11-21T05:46:00;28.90;;;15.80;;
28266;SDS011;15525;45.568;5.448;2023-11-21T05:48:26;25.27;;;14.80;;
28266;SDS011;15525;45.568;5.448;2023-11-21T05:50:51;27.67;;;15.13;;
28266;SDS011;15525;45.568;5.448;2023-11-21T05:53:17;27.23;;;14.75;;
28266;SDS011;15525;45.568;5.448;2023-11-21T05:55:43;31.73;;;15.10;;
28266;SDS011;15525;45.568;5.448;2023-11-21T05:58:08;32.33;;;16.13;;
28266;SDS011;15525;45.568;5.448;2023-11-21T06:00:33;25.15;;;13.68;;
28266;SDS011;15525;45.568;5.448;2023-11-21T06:02:59;25.60;;;13.60;;
28266;SDS011;15525;45.568;5.448;2023-11-21T06:05:25;28.88;;;14.38;;
28266;SDS011;15525;45.568;5.448;2023-11-21T06:07:52;22.98;;;12.93;;
28266;SDS011;15525;45.568;5.448;2023-11-21T06:10:19;26.08;;;13.13;;
28266;SDS011;15525;45.568;5.448;2023-11-21T06:12:46;24.75;;;13.55;;
28266;SDS011;15525;45.568;5.448;2023-11-21T06:15:11;25.85;;;11.90;;
28266;SDS011;15525;45.568;5.448;2023-11-21T06:17:41;21.92;;;11.07;;
28266;SDS011;15525;45.568;5.448;2023-11-21T06:20:08;19.83;;;10.73;;
28266;SDS011;15525;45.568;5.448;2023-11-21T06:22:36;20.38;;;10.60;;
28266;SDS011;15525;45.568;5.448;2023-11-21T06:25:03;24.83;;;11.18;;
28266;SDS011;15525;45.568;5.448;2023-11-21T06:27:30;19.98;;;10.18;;
28266;SDS011;15525;45.568;5.448;2023-11-21T06:30:02;26.73;;;12.25;;
28266;SDS011;15525;45.568;5.448;2023-11-21T06:32:29;25.58;;;12.32;;
28266;SDS011;15525;45.568;5.448;2023-11-21T06:34:55;28.08;;;12.13;;
28266;SDS011;15525;45.568;5.448;2023-11-21T06:37:21;30.40;;;13.27;;
28266;SDS011;15525;45.568;5.448;2023-11-21T06:39:48;28.83;;;14.07;;
28266;SDS011;15525;45.568;5.448;2023-11-21T06:42:14;30.40;;;14.38;;
28266;SDS011;15525;45.568;5.448;2023-11-21T06:44:40;28.05;;;15.68;;
28266;SDS011;15525;45.568;5.448;2023-11-21T06:47:06;29.02;;;14.88;;
28266;SDS011;15525;45.568;5.448;2023-11-21T06:49:32;34.20;;;16.13;;
28266;SDS011;15525;45.568;5.448;2023-11-21T06:51:57;33.63;;;15.73;;
28266;SDS011;15525;45.568;5.448;2023-11-21T06:54:23;31.38;;;14.27;;
28266;SDS011;15525;45.568;5.448;2023-11-21T06:56:49;29.67;;;13.75;;
28266;SDS011;15525;45.568;5.448;2023-11-21T06:59:15;25.58;;;13.23;;
28266;SDS011;15525;45.568;5.448;2023-11-21T07:01:40;27.52;;;13.60;;
28266;SDS011;15525;45.568;5.448;2023-11-21T07:04:06;23.50;;;11.63;;
28266;SDS011;15525;45.568;5.448;2023-11-21T07:06:32;22.95;;;12.38;;
28266;SDS011;15525;45.568;5.448;2023-11-21T07:08:58;23.48;;;12.55;;
28266;SDS011;15525;45.568;5.448;2023-11-21T07:11:24;26.33;;;12.23;;
28266;SDS011;15525;45.568;5.448;2023-11-21T07:13:50;29.55;;;12.88;;
28266;SDS011;15525;45.568;5.448;2023-11-21T07:16:16;25.92;;;13.23;;
28266;SDS011;15525;45.568;5.448;2023-11-21T07:18:41;25.83;;;12.30;;
28266;SDS011;15525;45.568;5.448;2023-11-21T07:21:06;31.73;;;13.93;;
28266;SDS011;15525;45.568;5.448;2023-11-21T07:23:33;27.50;;;13.13;;
28266;SDS011;15525;45.568;5.448;2023-11-21T07:25:58;25.40;;;12.52;;
28266;SDS011;15525;45.568;5.448;2023-11-21T07:28:24;27.00;;;11.80;;
28266;SDS011;15525;45.568;5.448;2023-11-21T07:30:50;29.42;;;13.55;;
28266;SDS011;15525;45.568;5.448;2023-11-21T07:33:16;23.60;;;13.02;;
28266;SDS011;15525;45.568;5.448;2023-11-21T07:35:42;25.30;;;12.90;;
28266;SDS011;15525;45.568;5.448;2023-11-21T07:38:08;25.88;;;13.15;;
28266;SDS011;15525;45.568;5.448;2023-11-21T07:40:33;26.40;;;13.38;;
28266;SDS011;15525;45.568;5.448;2023-11-21T07:42:59;24.00;;;12.25;;
28266;SDS011;15525;45.568;5.448;2023-11-21T07:45:24;26.77;;;12.10;;
28266;SDS011;15525;45.568;5.448;2023-11-21T07:47:52;18.88;;;10.82;;
28266;SDS011;15525;45.568;5.448;2023-11-21T07:50:18;23.85;;;11.63;;
28266;SDS011;15525;45.568;5.448;2023-11-21T07:52:45;23.17;;;11.77;;
28266;SDS011;15525;45.568;5.448;2023-11-21T07:55:10;24.05;;;12.80;;
28266;SDS011;15525;45.568;5.448;2023-11-21T07:57:36;25.23;;;15.35;;
28266;SDS011;15525;45.568;5.448;2023-11-21T08:00:03;25.13;;;14.70;;
28266;SDS011;15525;45.568;5.448;2023-11-21T08:02:31;22.38;;;11.60;;
28266;SDS011;15525;45.568;5.448;2023-11-21T08:04:57;20.20;;;11.40;;
28266;SDS011;15525;45.568;5.448;2023-11-21T08:07:23;19.45;;;10.98;;
28266;SDS011;15525;45.568;5.448;2023-11-21T08:09:48;21.77;;;11.23;;
28266;SDS011;15525;45.568;5.448;2023-11-21T08:12:15;23.83;;;12.07;;
28266;SDS011;15525;45.568;5.448;2023-11-21T08:14:42;18.73;;;11.13;;
28266;SDS011;15525;45.568;5.448;2023-11-21T08:17:08;20.65;;;11.50;;
28266;SDS011;15525;45.568;5.448;2023-11-21T08:19:35;23.05;;;13.98;;
28266;SDS011;15525;45.568;5.448;2023-11-21T08:22:02;20.00;;;11.82;;
28266;SDS011;15525;45.568;5.448;2023-11-21T08:24:28;19.63;;;10.75;;
28266;SDS011;15525;45.568;5.448;2023-11-21T08:26:53;17.23;;;9.80;;
28266;SDS011;15525;45.568;5.448;2023-11-21T08:29:19;15.60;;;7.82;;
28266;SDS011;15525;45.568;5.448;2023-11-21T08:31:45;22.05;;;10.77;;
28266;SDS011;15525;45.568;5.448;2023-11-21T08:34:12;19.42;;;11.55;;
28266;SDS011;15525;45.568;5.448;2023-11-21T08:36:46;18.63;;;11.10;;
28266;SDS011;15525;45.568;5.448;2023-11-21T08:39:12;19.92;;;10.35;;
28266;SDS011;15525;45.568;5.448;2023-11-21T08:41:38;18.17;;;11.13;;
28266;SDS011;15525;45.568;5.448;2023-11-21T08:44:03;21.00;;;10.88;;
28266;SDS011;15525;45.568;5.448;2023-11-21T08:46:32;20.10;;;10.35;;
28266;SDS011;15525;45.568;5.448;2023-11-21T08:49:00;17.83;;;10.40;;
28266;SDS011;15525;45.568;5.448;2023-11-21T08:51:26;19.38;;;10.13;;
28266;SDS011;15525;45.568;5.448;2023-11-21T08:53:51;19.40;;;9.80;;
28266;SDS011;15525;45.568;5.448;2023-11-21T08:56:17;22.58;;;12.18;;
28266;SDS011;15525;45.568;5.448;2023-11-21T08:58:45;18.63;;;10.02;;
28266;SDS011;15525;45.568;5.448;2023-11-21T09:01:11;15.63;;;8.45;;
28266;SDS011;15525;45.568;5.448;2023-11-21T09:03:37;13.55;;;7.50;;
28266;SDS011;15525;45.568;5.448;2023-11-21T09:06:03;11.60;;;6.72;;
28266;SDS011;15525;45.568;5.448;2023-11-21T09:08:29;13.77;;;8.45;;
28266;SDS011;15525;45.568;5.448;2023-11-21T09:10:55;15.10;;;7.60;;
28266;SDS011;15525;45.568;5.448;2023-11-21T09:13:20;12.73;;;7.63;;
28266;SDS011;15525;45.568;5.448;2023-11-21T09:15:46;13.07;;;7.32;;
28266;SDS011;15525;45.568;5.448;2023-11-21T09:18:13;11.77;;;6.63;;
28266;SDS011;15525;45.568;5.448;2023-11-21T09:20:39;9.38;;;6.22;;
28266;SDS011;15525;45.568;5.448;2023-11-21T09:23:04;10.82;;;6.15;;
28266;SDS011;15525;45.568;5.448;2023-11-21T09:25:29;10.63;;;6.22;;
28266;SDS011;15525;45.568;5.448;2023-11-21T09:27:55;9.32;;;5.80;;
28266;SDS011;15525;45.568;5.448;2023-11-21T09:30:22;9.25;;;5.22;;
28266;SDS011;15525;45.568;5.448;2023-11-21T09:32:49;10.38;;;5.18;;
28266;SDS011;15525;45.568;5.448;2023-11-21T09:35:15;7.95;;;4.88;;
28266;SDS011;15525;45.568;5.448;2023-11-21T09:37:43;9.95;;;5.05;;
28266;SDS011;15525;45.568;5.448;2023-11-21T09:40:10;9.07;;;5.28;;
28266;SDS011;15525;45.568;5.448;2023-11-21T09:42:39;7.88;;;4.75;;
28266;SDS011;15525;45.568;5.448;2023-11-21T09:47:59;10.07;;;5.60;;
28266;SDS011;15525;45.568;5.448;2023-11-21T09:50:25;9.88;;;5.05;;
28266;SDS011;15525;45.568;5.448;2023-11-21T09:55:28;8.73;;;5.45;;
28266;SDS011;15525;45.568;5.448;2023-11-21T09:57:55;10.13;;;5.18;;
28266;SDS011;15525;45.568;5.448;2023-11-21T10:00:22;7.20;;;4.47;;
28266;SDS011;15525;45.568;5.448;2023-11-21T10:02:49;7.95;;;5.07;;
28266;SDS011;15525;45.568;5.448;2023-11-21T10:05:15;10.45;;;4.88;;
28266;SDS011;15525;45.568;5.448;2023-11-21T10:07:43;3.97;;;2.50;;
28266;SDS011;15525;45.568;5.448;2023-11-21T10:10:10;4.85;;;2.67;;
28266;SDS011;15525;45.568;5.448;2023-11-21T10:12:35;3.80;;;2.65;;
28266;SDS011;15525;45.568;5.448;2023-11-21T10:15:02;2.67;;;1.95;;
28266;SDS011;15525;45.568;5.448;2023-11-21T10:17:31;3.40;;;2.17;;
28266;SDS011;15525;45.568;5.448;2023-11-21T10:20:08;2.33;;;1.88;;
28266;SDS011;15525;45.568;5.448;2023-11-21T10:22:41;2.78;;;2.13;;
28266;SDS011;15525;45.568;5.448;2023-11-21T10:25:10;2.45;;;2.08;;
28266;SDS011;15525;45.568;5.448;2023-11-21T10:27:39;3.00;;;1.80;;
28266;SDS011;15525;45.568;5.448;2023-11-21T10:30:05;2.15;;;1.88;;
28266;SDS011;15525;45.568;5.448;2023-11-21T10:32:32;2.60;;;1.92;;
28266;SDS011;15525;45.568;5.448;2023-11-21T10:34:58;2.65;;;1.88;;
28266;SDS011;15525;45.568;5.448;2023-11-21T10:37:32;3.05;;;1.70;;
28266;SDS011;15525;45.568;5.448;2023-11-21T10:39:58;2.17;;;1.80;;
28266;SDS011;15525;45.568;5.448;2023-11-21T10:42:24;2.28;;;1.90;;
28266;SDS011;15525;45.568;5.448;2023-11-21T10:44:50;2.70;;;1.80;;
28266;SDS011;15525;45.568;5.448;2023-11-21T10:47:16;2.10;;;1.70;;
28266;SDS011;15525;45.568;5.448;2023-11-21T10:49:44;2.55;;;1.98;;
28266;SDS011;15525;45.568;5.448;2023-11-21T10:52:12;2.80;;;2.10;;
28266;SDS011;15525;45.568;5.448;2023-11-21T10:54:42;3.72;;;2.22;;
28266;SDS011;15525;45.568;5.448;2023-11-21T10:57:10;3.95;;;2.60;;
28266;SDS011;15525;45.568;5.448;2023-11-21T10:59:41;3.85;;;3.15;;
28266;SDS011;15525;45.568;5.448;2023-11-21T11:02:19;5.20;;;3.90;;
28266;SDS011;15525;45.568;5.448;2023-11-21T11:04:50;7.07;;;4.60;;
28266;SDS011;15525;45.568;5.448;2023-11-21T11:07:17;6.35;;;4.50;;
28266;SDS011;15525;45.568;5.448;2023-11-21T11:09:44;7.60;;;4.70;;
28266;SDS011;15525;45.568;5.448;2023-11-21T11:12:12;6.13;;;4.38;;
28266;SDS011;15525;45.568;5.448;2023-11-21T11:14:40;4.63;;;3.60;;
28266;SDS011;15525;45.568;5.448;2023-11-21T11:17:06;3.83;;;2.97;;
28266;SDS011;15525;45.568;5.448;2023-11-21T11:19:33;3.42;;;2.80;;
28266;SDS011;15525;45.568;5.448;2023-11-21T11:28:12;4.45;;;2.60;;
28266;SDS011;15525;45.568;5.448;2023-11-21T11:33:20;3.40;;;2.60;;
28266;SDS011;15525;45.568;5.448;2023-11-21T11:36:10;4.32;;;2.70;;
28266;SDS011;15525;45.568;5.448;2023-11-21T11:38:45;3.00;;;2.22;;
28266;SDS011;15525;45.568;5.448;2023-11-21T11:41:11;3.17;;;2.10;;
28266;SDS011;15525;45.568;5.448;2023-11-21T11:43:37;4.32;;;2.80;;
28266;SDS011;15525;45.568;5.448;2023-11-21T11:46:09;3.42;;;2.50;;
28266;SDS011;15525;45.568;5.448;2023-11-21T11:48:38;4.78;;;2.67;;
28266;SDS011;15525;45.568;5.448;2023-11-21T11:51:10;4.03;;;2.53;;
28266;SDS011;15525;45.568;5.448;2023-11-21T11:53:44;2.97;;;2.47;;
28266;SDS011;15525;45.568;5.448;2023-11-21T11:56:28;4.38;;;2.60;;
28266;SDS011;15525;45.568;5.448;2023-11-21T11:59:00;4.13;;;3.40;;
28266;SDS011;15525;45.568;5.448;2023-11-21T12:01:27;4.85;;;3.85;;
28266;SDS011;15525;45.568;5.448;2023-11-21T12:06:45;4.22;;;2.63;;
28266;SDS011;15525;45.568;5.448;2023-11-21T12:09:20;2.60;;;2.40;;
28266;SDS011;15525;45.568;5.448;2023-11-21T12:11:47;4.97;;;2.97;;
28266;SDS011;15525;45.568;5.448;2023-11-21T12:14:14;3.30;;;2.67;;
28266;SDS011;15525;45.568;5.448;2023-11-21T12:16:40;4.35;;;2.60;;
28266;SDS011;15525;45.568;5.448;2023-11-21T12:19:08;4.30;;;3.08;;
28266;SDS011;15525;45.568;5.448;2023-11-21T12:21:33;3.83;;;3.03;;
28266;SDS011;15525;45.568;5.448;2023-11-21T12:24:01;4.78;;;3.08;;
28266;SDS011;15525;45.568;5.448;2023-11-21T12:26:26;4.47;;;3.00;;
28266;SDS011;15525;45.568;5.448;2023-11-21T12:28:52;6.32;;;3.03;;
28266;SDS011;15525;45.568;5.448;2023-11-21T12:31:21;6.13;;;3.42;;
28266;SDS011;15525;45.568;5.448;2023-11-21T12:33:47;3.70;;;2.80;;
28266;SDS011;15525;45.568;5.448;2023-11-21T12:36:13;3.88;;;2.70;;
28266;SDS011;15525;45.568;5.448;2023-11-21T12:38:39;5.78;;;3.40;;
28266;SDS011;15525;45.568;5.448;2023-11-21T12:41:05;4.70;;;3.00;;
28266;SDS011;15525;45.568;5.448;2023-11-21T12:43:31;4.88;;;3.28;;
28266;SDS011;15525;45.568;5.448;2023-11-21T12:46:06;4.88;;;3.00;;
28266;SDS011;15525;45.568;5.448;2023-11-21T12:48:34;4.88;;;3.00;;
28266;SDS011;15525;45.568;5.448;2023-11-21T12:51:09;5.30;;;3.25;;
28266;SDS011;15525;45.568;5.448;2023-11-21T12:53:35;4.63;;;3.22;;
28266;SDS011;15525;45.568;5.448;2023-11-21T12:56:07;6.03;;;3.10;;
28266;SDS011;15525;45.568;5.448;2023-11-21T12:58:38;6.38;;;2.95;;
28266;SDS011;15525;45.568;5.448;2023-11-21T13:01:05;4.00;;;3.10;;
28266;SDS011;15525;45.568;5.448;2023-11-21T13:03:37;5.13;;;3.00;;
28266;SDS011;15525;45.568;5.448;2023-11-21T13:06:03;4.28;;;3.00;;
28266;SDS011;15525;45.568;5.448;2023-11-21T13:08:30;6.88;;;2.95;;
28266;SDS011;15525;45.568;5.448;2023-11-21T13:10:57;5.47;;;3.50;;
28266;SDS011;15525;45.568;5.448;2023-11-21T13:13:24;5.63;;;3.42;;
28266;SDS011;15525;45.568;5.448;2023-11-21T13:15:56;5.72;;;2.92;;
28266;SDS011;15525;45.568;5.448;2023-11-21T13:18:29;6.68;;;3.97;;
28266;SDS011;15525;45.568;5.448;2023-11-21T13:20:59;3.83;;;2.70;;
28266;SDS011;15525;45.568;5.448;2023-11-21T13:23:27;4.53;;;2.50;;
28266;SDS011;15525;45.568;5.448;2023-11-21T13:25:54;4.07;;;2.63;;
28266;SDS011;15525;45.568;5.448;2023-11-21T13:28:20;4.72;;;2.50;;
28266;SDS011;15525;45.568;5.448;2023-11-21T13:30:47;3.10;;;2.25;;
28266;SDS011;15525;45.568;5.448;2023-11-21T13:33:13;4.85;;;2.58;;
28266;SDS011;15525;45.568;5.448;2023-11-21T13:35:46;4.35;;;2.55;;
28266;SDS011;15525;45.568;5.448;2023-11-21T13:38:16;3.92;;;2.35;;
28266;SDS011;15525;45.568;5.448;2023-11-21T13:40:47;4.30;;;2.50;;
28266;SDS011;15525;45.568;5.448;2023-11-21T13:43:18;3.13;;;2.40;;
28266;SDS011;15525;45.568;5.448;2023-11-21T13:45:47;4.15;;;2.45;;
28266;SDS011;15525;45.568;5.448;2023-11-21T13:48:16;4.63;;;2.17;;
28266;SDS011;15525;45.568;5.448;2023-11-21T13:50:50;2.45;;;2.20;;
28266;SDS011;15525;45.568;5.448;2023-11-21T13:53:24;2.38;;;2.05;;
28266;SDS011;15525;45.568;5.448;2023-11-21T13:55:50;3.10;;;2.00;;
28266;SDS011;15525;45.568;5.448;2023-11-21T13:58:16;3.88;;;1.80;;
28266;SDS011;15525;45.568;5.448;2023-11-21T14:00:49;1.90;;;1.67;;
28266;SDS011;15525;45.568;5.448;2023-11-21T14:03:22;3.72;;;2.00;;
28266;SDS011;15525;45.568;5.448;2023-11-21T14:05:57;2.28;;;1.67;;
28266;SDS011;15525;45.568;5.448;2023-11-21T14:08:23;4.50;;;1.98;;
28266;SDS011;15525;45.568;5.448;2023-11-21T14:10:53;2.55;;;1.63;;
28266;SDS011;15525;45.568;5.448;2023-11-21T14:13:28;2.50;;;1.88;;
28266;SDS011;15525;45.568;5.448;2023-11-21T14:15:54;3.35;;;1.98;;
28266;SDS011;15525;45.568;5.448;2023-11-21T14:18:24;3.47;;;2.20;;
28266;SDS011;15525;45.568;5.448;2023-11-21T14:21:03;3.63;;;1.95;;
28266;SDS011;15525;45.568;5.448;2023-11-21T14:23:30;3.78;;;2.15;;
28266;SDS011;15525;45.568;5.448;2023-11-21T14:25:56;3.85;;;2.10;;
28266;SDS011;15525;45.568;5.448;2023-11-21T14:28:22;2.55;;;2.10;;
28266;SDS011;15525;45.568;5.448;2023-11-21T14:30:48;3.35;;;2.00;;
28266;SDS011;15525;45.568;5.448;2023-11-21T14:33:13;4.13;;;2.17;;
28266;SDS011;15525;45.568;5.448;2023-11-21T14:35:41;4.40;;;2.63;;
28266;SDS011;15525;45.568;5.448;2023-11-21T14:38:07;3.58;;;2.13;;
28266;SDS011;15525;45.568;5.448;2023-11-21T14:40:32;4.45;;;2.20;;
28266;SDS011;15525;45.568;5.448;2023-11-21T14:43:00;3.42;;;1.90;;
28266;SDS011;15525;45.568;5.448;2023-11-21T14:45:26;3.17;;;2.10;;
28266;SDS011;15525;45.568;5.448;2023-11-21T14:47:53;3.13;;;2.00;;